FW0780 Weather Reports


Display with metric or nautical units.
time (UTC)temp
F
wind
direction
speed
MPH
gust
MPH
rain 1hr
in
rain 24hr
in
rain mn
in
humidity
%
barometer
mb
20191015060241 50 61 4.0 7.0 0.00 0.01 0.01 93 1015.2
20191015054640 49 58 3.0 6.0 0.00 0.01 0.01 93 1015.2
20191015053143 49 59 3.0 6.0 0.01 0.01 0.01 93 1015.1
20191015051657 49 58 3.0 6.0 0.01 0.01 0.01 93 1015.3
20191015050237 49 59 4.0 6.0 0.01 0.01 0.01 93 1015.2
20191015043212 49 56 4.0 6.0 0.00 0.00 0.00 93 1015.2
20191015041651 49 55 3.0 5.0 0.00 0.00 0.00 94 1015.3
20191015040116 49 54 4.0 5.0 0.00 0.00 0.00 94 1015.3
20191015034615 48 55 3.0 6.0 0.00 0.00 0.00 93 1015.4
20191015033133 48 57 4.0 6.0 0.00 0.00 0.00 93 1015.3
20191015031648 49 59 4.0 6.0 0.00 0.00 0.00 93 1015.3
20191015030050 49 55 3.0 5.0 0.00 0.00 0.00 93 1015.5
20191015024622 49 55 3.0 5.0 0.00 0.00 0.00 93 1015.5
20191015023049 49 55 3.0 5.0 0.00 0.00 0.00 93 1015.6
20191015021617 49 55 4.0 6.0 0.00 0.00 0.00 93 1015.7
20191015020110 50 62 4.0 6.0 0.00 0.00 0.00 93 1015.8
20191015014549 50 58 4.0 7.0 0.00 0.00 0.00 93 1015.8
20191015013105 50 59 3.0 6.0 0.00 0.00 0.00 93 1015.9
20191015011616 50 59 2.0 5.0 0.00 0.00 0.00 93 1016.0
20191015010049 50 67 3.0 6.0 0.00 0.00 0.00 93 1015.9
20191015004631 50 59 3.0 6.0 0.00 0.00 0.00 93 1016.1
20191015003055 50 60 4.0 6.0 0.00 0.00 0.00 93 1016.0
20191015001552 51 53 4.0 7.0 0.00 0.00 0.00 93 1016.2
20191015000110 51 52 5.0 8.0 0.00 0.00 0.00 93 1016.3
20191014234548 51 60 3.0 5.0 0.00 0.00 0.00 93 1016.5
20191014233030 51 60 2.0 4.0 0.00 0.00 0.00 92 1016.5
20191014231523 51 58 4.0 6.0 0.00 0.00 0.00 92 1016.4
20191014230119 52 60 1.0 4.0 0.00 0.00 0.00 92 1016.6
20191014224523 52 143 0.0 1.0 0.00 0.00 0.00 92 1016.7
20191014221519 53 143 0.0 1.0 0.00 0.00 0.00 92 1016.7
20191014220012 53 143 0.0 3.0 0.00 0.00 0.00 91 1016.9
20191014214516 52 143 0.0 1.0 0.00 0.00 0.00 91 1016.9
20191014213011 52 143 0.0 0.0 0.00 0.00 0.00 91 1016.9
20191014211528 52 143 0.0 1.0 0.00 0.00 0.00 90 1016.9
20191014210017 53 46 0.0 2.0 0.00 0.00 0.00 90 1017.1
20191014204507 53 32 0.0 0.0 0.00 0.00 0.00 90 1016.9
20191014203128 54 32 0.0 1.0 0.00 0.00 0.00 90 1017.0
20191014201900 55 32 0.0 2.0 0.00 0.00 0.00 90 1017.0
20191014200154 55 32 0.0 3.0 0.00 0.00 0.00 90 1016.9
20191014194628 55 341 1.0 3.0 0.00 0.00 0.00 89 1017.0
20191014193152 55 341 0.0 0.0 0.00 0.00 0.00 88 1017.1
20191014191653 55 341 0.0 0.0 0.00 0.00 0.00 88 1017.2
20191014190346 56 341 0.0 2.0 0.00 0.00 0.00 87 1017.2
20191014184631 56 341 0.0 1.0 0.00 0.00 0.00 86 1017.2
20191014183152 56 341 0.0 1.0 0.00 0.00 0.00 85 1017.1
20191014181623 57 341 0.0 1.0 0.00 0.00 0.00 84 1017.2
20191014180152 58 341 0.0 0.0 0.00 0.00 0.00 84 1017.2
20191014174613 58 341 0.0 1.0 0.00 0.00 0.00 83 1017.3
20191014173056 59 341 0.0 1.0 0.00 0.00 0.00 82 1017.3
20191014171638 60 341 0.0 1.0 0.00 0.00 0.00 80 1017.3
20191014170157 62 108 0.0 4.0 0.00 0.00 0.00 79 1017.1
20191014164622 63 233 0.0 1.0 0.00 0.00 0.00 76 1017.0
20191014163119 64 233 0.0 1.0 0.00 0.00 0.00 74 1017.0
20191014161537 66 233 0.0 0.0 0.00 0.00 0.00 72 1017.0
20191014160037 68 233 0.0 1.0 0.00 0.00 0.00 70 1017.1
20191014154539 69 233 0.0 1.0 0.00 0.00 0.00 66 1016.8
20191014153023 70 233 0.0 2.0 0.00 0.00 0.00 64 1016.7
20191014150031 71 233 1.0 3.0 0.00 0.00 0.00 62 1016.8
20191014144511 72 225 4.0 6.0 0.00 0.00 0.00 60 1016.8
20191014143005 72 234 3.0 5.0 0.00 0.00 0.00 60 1016.8
20191014141506 72 213 4.0 8.0 0.00 0.00 0.00 59 1016.7
20191014140001 72 233 5.0 9.0 0.00 0.00 0.00 59 1016.7
20191014134810 72 245 5.0 10.0 0.00 0.00 0.00 58 1016.7
20191014133155 72 226 6.0 9.0 0.00 0.00 0.00 58 1016.9
20191014131644 72 234 8.0 12.0 0.00 0.00 0.00 57 1016.9
20191014123113 71 223 5.0 9.0 0.00 0.00 0.00 59 1017.0
20191014121607 71 234 7.0 11.0 0.00 0.00 0.00 59 1017.1
20191014120115 71 198 6.0 10.0 0.00 0.00 0.00 62 1017.2
20191014114551 71 227 5.0 10.0 0.00 0.00 0.00 61 1017.2
20191014113112 70 221 5.0 10.0 0.00 0.00 0.00 62 1017.4
20191014111639 69 211 6.0 10.0 0.00 0.00 0.00 64 1017.4
20191014110106 68 234 6.0 10.0 0.00 0.00 0.00 65 1017.5
20191014104538 68 234 5.0 9.0 0.00 0.00 0.00 67 1017.6
20191014103119 67 232 6.0 9.0 0.00 0.00 0.00 68 1017.9
20191014101534 67 148 4.0 8.0 0.00 0.00 0.00 70 1018.2
20191014100051 65 224 3.0 8.0 0.00 0.00 0.00 73 1018.2
20191014094529 65 212 4.0 9.0 0.00 0.00 0.00 74 1018.4
20191014093017 64 236 5.0 9.0 0.00 0.00 0.00 75 1018.6
20191014091538 63 230 6.0 10.0 0.00 0.00 0.00 77 1018.7
20191014090028 62 239 5.0 9.0 0.00 0.00 0.00 79 1018.7
20191014083159 59 231 5.0 10.0 0.00 0.00 0.00 85 1018.4
20191014081706 57 226 3.0 7.0 0.00 0.00 0.00 89 1018.5
20191014080139 56 251 4.0 7.0 0.00 0.00 0.00 91 1018.4
20191014074630 55 211 3.0 4.0 0.00 0.00 0.00 91 1018.2
20191014073125 54 184 1.0 5.0 0.00 0.00 0.00 93 1018.2
20191014071540 53 186 0.0 5.0 0.00 0.00 0.00 93 1018.2
20191014070030 52 166 2.0 6.0 0.00 0.00 0.00 94 1018.1
20191014064526 51 163 2.0 5.0 0.00 0.00 0.00 94 1018.2
20191014061522 49 155 1.0 5.0 0.00 0.00 0.00 94 1018.1